This is the latest recevied weather packets stored in our database for station/object VA2IEI-13. If no packets are shown the sender has not sent any weather packets the latest 10 day(s).
| Time | Temp. | Humidity | Pressure | Rain* | Wind** | Luminosity | Snow |
|---|---|---|---|---|---|---|---|
| 1777883433 | -0.56° C | 80% | 1007.8 hPa | 0 mm | - | - | - |
| 1777881621 | 0° C | 79% | 1007.9 hPa | 0 mm | - | - | - |
| 1777881014 | 0° C | 79% | 1008 hPa | 0 mm | - | - | - |
| 1777880431 | 0° C | 78% | 1008 hPa | 0 mm | - | - | - |
| 1777878651 | 1.11° C | 76% | 1008.1 hPa | 0 mm | - | - | - |
| 1777876232 | 1.67° C | 74% | 1008.2 hPa | 0 mm | - | - | - |
| 1777875629 | 1.67° C | 72% | 1008.2 hPa | 0 mm | - | - | - |
| 1777873833 | 1.67° C | 73% | 1008.3 hPa | 0 mm | - | - | - |
| 1777873208 | 2.22° C | 72% | 1008.4 hPa | 0 mm | - | - | - |
| 1777870262 | 2.78° C | 69% | 1008.7 hPa | 0 mm | - | - | - |
| 1777868450 | 3.33° C | 67% | 1008.9 hPa | 0 mm | - | - | - |
| 1777856443 | 6.11° C | 55% | 1008.9 hPa | 0 mm | - | - | - |
| 1777855824 | 6.67° C | 53% | 1008.8 hPa | 0 mm | - | - | - |
| 1777854091 | 7.22° C | 51% | 1008.7 hPa | 0 mm | - | - | - |
| 1777851661 | 8.33° C | 48% | 1008.5 hPa | 0 mm | - | - | - |
| 1777850431 | 8.89° C | 46% | 1008.4 hPa | 0 mm | - | - | - |
| 1777849825 | 8.89° C | 47% | 1008.4 hPa | 0 mm | - | - | - |
| 1777847475 | 9.44° C | 45% | 1008.3 hPa | 0 mm | - | - | - |
| 1777846891 | 10° C | 45% | 1008.1 hPa | 0 mm | - | - | - |
| 1777839074 | 10° C | 46% | 1008.3 hPa | 0 mm | - | - | - |
| 1777836656 | 9.44° C | 45% | 1008.2 hPa | 0 mm | - | - | - |
| 1777835468 | 10° C | 44% | 1008.4 hPa | 0 mm | - | - | - |
| 1777834844 | 10° C | 44% | 1008.3 hPa | 0 mm | - | - | - |
| 1777829462 | 10° C | 46% | 1008.9 hPa | 0 mm | - | - | - |
| 1777828850 | 10° C | 46% | 1008.9 hPa | 0 mm | - | - | - |
* Rain latest hour (hover to see other rain measurements)
** Current wind speed in m/s (hover to see current wind gust speed)